Terminal Aerodrome Forecast
Issued by NWS Chicago, IL

Home | Current Version | Previous Version | Graphics & Text | Print | Product List | Glossary On
Versions: 1 2 3 4 5 6 7 8 9 10 11 12 13 14 15 16 17 18 19 20 21 22 23 24 25 26 27 28 29 30 31 32 33
000
FTUS43 KLOT 242209 AAB
TAFRFD
TAF AMD
KRFD 242209Z 2422/2518 06013KT P6SM -RA SCT040 OVC060
      TEMPO 2422/2502 4SM -RA SCT025 OVC040
     FM250300 09012KT P6SM OVC040
     FM251300 09015KT 4SM -RA OVC015
     FM251600 07015G21KT 3SM RA BR OVC007=

USA.gov is the U.S. government's official web portal to all federal, state and local government web resources and services.